sensor_id;sensor_type;location;lat;lon;timestamp;P1;durP1;ratioP1;P2;durP2;ratioP2
76039;SDS011;64736;50.462;4.850;2023-08-21T00:01:45;4.93;;;1.98;;
76039;SDS011;64736;50.462;4.850;2023-08-21T00:04:10;5.82;;;2.28;;
76039;SDS011;64736;50.462;4.850;2023-08-21T00:06:36;5.00;;;2.00;;
76039;SDS011;64736;50.462;4.850;2023-08-21T00:09:02;6.68;;;2.10;;
76039;SDS011;64736;50.462;4.850;2023-08-21T00:11:28;5.70;;;2.30;;
76039;SDS011;64736;50.462;4.850;2023-08-21T00:13:54;4.93;;;2.08;;
76039;SDS011;64736;50.462;4.850;2023-08-21T00:16:20;4.25;;;2.10;;
76039;SDS011;64736;50.462;4.850;2023-08-21T00:18:45;6.30;;;2.08;;
76039;SDS011;64736;50.462;4.850;2023-08-21T00:21:11;6.63;;;2.20;;
76039;SDS011;64736;50.462;4.850;2023-08-21T00:23:37;5.40;;;2.00;;
76039;SDS011;64736;50.462;4.850;2023-08-21T00:26:03;10.23;;;2.47;;
76039;SDS011;64736;50.462;4.850;2023-08-21T00:28:29;6.20;;;1.65;;
76039;SDS011;64736;50.462;4.850;2023-08-21T00:33:31;4.47;;;2.08;;
76039;SDS011;64736;50.462;4.850;2023-08-21T00:35:57;4.65;;;2.50;;
76039;SDS011;64736;50.462;4.850;2023-08-21T00:38:23;6.35;;;2.42;;
76039;SDS011;64736;50.462;4.850;2023-08-21T00:40:48;5.43;;;2.20;;
76039;SDS011;64736;50.462;4.850;2023-08-21T00:43:15;5.00;;;2.47;;
76039;SDS011;64736;50.462;4.850;2023-08-21T00:45:41;5.38;;;2.30;;
76039;SDS011;64736;50.462;4.850;2023-08-21T00:48:08;4.55;;;2.38;;
76039;SDS011;64736;50.462;4.850;2023-08-21T00:50:35;6.70;;;2.10;;
76039;SDS011;64736;50.462;4.850;2023-08-21T00:53:01;7.38;;;2.58;;
76039;SDS011;64736;50.462;4.850;2023-08-21T00:55:28;4.75;;;2.50;;
76039;SDS011;64736;50.462;4.850;2023-08-21T00:57:55;7.70;;;3.00;;
76039;SDS011;64736;50.462;4.850;2023-08-21T01:00:21;6.35;;;2.40;;
76039;SDS011;64736;50.462;4.850;2023-08-21T01:02:48;5.03;;;2.50;;
76039;SDS011;64736;50.462;4.850;2023-08-21T01:05:13;6.32;;;2.80;;
76039;SDS011;64736;50.462;4.850;2023-08-21T01:07:48;6.07;;;2.47;;
76039;SDS011;64736;50.462;4.850;2023-08-21T01:10:27;5.07;;;2.25;;
76039;SDS011;64736;50.462;4.850;2023-08-21T01:13:17;6.93;;;3.00;;
76039;SDS011;64736;50.462;4.850;2023-08-21T01:16:14;5.70;;;2.58;;
76039;SDS011;64736;50.462;4.850;2023-08-21T01:18:42;6.72;;;2.90;;
76039;SDS011;64736;50.462;4.850;2023-08-21T01:21:10;6.03;;;2.78;;
76039;SDS011;64736;50.462;4.850;2023-08-21T01:23:37;6.55;;;3.15;;
76039;SDS011;64736;50.462;4.850;2023-08-21T01:26:03;7.05;;;2.38;;
76039;SDS011;64736;50.462;4.850;2023-08-21T01:28:30;6.93;;;2.70;;
76039;SDS011;64736;50.462;4.850;2023-08-21T01:33:29;10.43;;;2.60;;
76039;SDS011;64736;50.462;4.850;2023-08-21T01:35:58;5.78;;;2.50;;
76039;SDS011;64736;50.462;4.850;2023-08-21T01:38:30;6.10;;;2.72;;
76039;SDS011;64736;50.462;4.850;2023-08-21T01:41:00;6.55;;;2.90;;
76039;SDS011;64736;50.462;4.850;2023-08-21T01:43:27;6.13;;;2.55;;
76039;SDS011;64736;50.462;4.850;2023-08-21T01:45:53;4.70;;;2.65;;
76039;SDS011;64736;50.462;4.850;2023-08-21T01:48:19;5.90;;;2.97;;
76039;SDS011;64736;50.462;4.850;2023-08-21T01:50:45;6.80;;;2.60;;
76039;SDS011;64736;50.462;4.850;2023-08-21T01:53:11;5.03;;;2.75;;
76039;SDS011;64736;50.462;4.850;2023-08-21T01:55:36;4.47;;;2.20;;
76039;SDS011;64736;50.462;4.850;2023-08-21T01:58:02;5.65;;;2.28;;
76039;SDS011;64736;50.462;4.850;2023-08-21T02:00:28;6.28;;;2.78;;
76039;SDS011;64736;50.462;4.850;2023-08-21T02:02:54;5.75;;;2.38;;
76039;SDS011;64736;50.462;4.850;2023-08-21T02:05:20;6.65;;;3.00;;
76039;SDS011;64736;50.462;4.850;2023-08-21T02:07:45;7.03;;;2.90;;
76039;SDS011;64736;50.462;4.850;2023-08-21T02:10:11;9.05;;;2.90;;
76039;SDS011;64736;50.462;4.850;2023-08-21T02:12:37;6.85;;;2.63;;
76039;SDS011;64736;50.462;4.850;2023-08-21T02:15:03;7.75;;;2.67;;
76039;SDS011;64736;50.462;4.850;2023-08-21T02:17:29;6.00;;;2.78;;
76039;SDS011;64736;50.462;4.850;2023-08-21T02:19:55;6.57;;;3.35;;
76039;SDS011;64736;50.462;4.850;2023-08-21T02:22:21;8.10;;;3.35;;
76039;SDS011;64736;50.462;4.850;2023-08-21T02:24:46;6.35;;;2.78;;
76039;SDS011;64736;50.462;4.850;2023-08-21T02:27:12;5.55;;;3.05;;
76039;SDS011;64736;50.462;4.850;2023-08-21T02:29:38;5.60;;;2.45;;
76039;SDS011;64736;50.462;4.850;2023-08-21T02:32:04;5.18;;;2.80;;
76039;SDS011;64736;50.462;4.850;2023-08-21T02:34:30;6.97;;;2.75;;
76039;SDS011;64736;50.462;4.850;2023-08-21T02:36:55;7.03;;;2.83;;
76039;SDS011;64736;50.462;4.850;2023-08-21T02:39:21;8.10;;;2.60;;
76039;SDS011;64736;50.462;4.850;2023-08-21T02:41:47;8.73;;;3.38;;
76039;SDS011;64736;50.462;4.850;2023-08-21T02:44:13;6.03;;;2.90;;
76039;SDS011;64736;50.462;4.850;2023-08-21T02:46:38;6.68;;;3.10;;
76039;SDS011;64736;50.462;4.850;2023-08-21T02:49:04;8.10;;;3.08;;
76039;SDS011;64736;50.462;4.850;2023-08-21T02:51:30;5.30;;;3.03;;
76039;SDS011;64736;50.462;4.850;2023-08-21T02:53:56;6.03;;;2.90;;
76039;SDS011;64736;50.462;4.850;2023-08-21T02:56:21;8.50;;;2.95;;
76039;SDS011;64736;50.462;4.850;2023-08-21T02:58:47;6.13;;;2.72;;
76039;SDS011;64736;50.462;4.850;2023-08-21T03:01:13;7.43;;;3.00;;
76039;SDS011;64736;50.462;4.850;2023-08-21T03:03:39;7.10;;;2.90;;
76039;SDS011;64736;50.462;4.850;2023-08-21T03:06:04;5.97;;;2.97;;
76039;SDS011;64736;50.462;4.850;2023-08-21T03:08:30;6.10;;;3.33;;
76039;SDS011;64736;50.462;4.850;2023-08-21T03:10:56;6.88;;;2.85;;
76039;SDS011;64736;50.462;4.850;2023-08-21T03:13:22;5.30;;;3.03;;
76039;SDS011;64736;50.462;4.850;2023-08-21T03:15:48;5.40;;;2.75;;
76039;SDS011;64736;50.462;4.850;2023-08-21T03:18:13;7.03;;;3.08;;
76039;SDS011;64736;50.462;4.850;2023-08-21T03:20:44;6.40;;;3.03;;
76039;SDS011;64736;50.462;4.850;2023-08-21T03:23:11;7.28;;;2.85;;
76039;SDS011;64736;50.462;4.850;2023-08-21T03:25:40;6.82;;;2.80;;
76039;SDS011;64736;50.462;4.850;2023-08-21T03:28:06;6.28;;;2.70;;
76039;SDS011;64736;50.462;4.850;2023-08-21T03:30:31;6.28;;;3.00;;
76039;SDS011;64736;50.462;4.850;2023-08-21T03:32:57;8.23;;;3.38;;
76039;SDS011;64736;50.462;4.850;2023-08-21T03:35:23;8.18;;;3.20;;
76039;SDS011;64736;50.462;4.850;2023-08-21T03:37:48;8.07;;;3.05;;
76039;SDS011;64736;50.462;4.850;2023-08-21T03:40:14;5.82;;;3.00;;
76039;SDS011;64736;50.462;4.850;2023-08-21T03:42:40;8.10;;;3.58;;
76039;SDS011;64736;50.462;4.850;2023-08-21T03:45:06;5.65;;;2.70;;
76039;SDS011;64736;50.462;4.850;2023-08-21T03:47:32;6.25;;;3.40;;
76039;SDS011;64736;50.462;4.850;2023-08-21T03:49:58;6.53;;;3.35;;
76039;SDS011;64736;50.462;4.850;2023-08-21T03:52:24;6.68;;;3.88;;
76039;SDS011;64736;50.462;4.850;2023-08-21T03:54:50;6.22;;;3.00;;
76039;SDS011;64736;50.462;4.850;2023-08-21T03:57:15;7.65;;;3.35;;
76039;SDS011;64736;50.462;4.850;2023-08-21T03:59:41;8.45;;;3.22;;
76039;SDS011;64736;50.462;4.850;2023-08-21T04:02:07;9.02;;;3.17;;
76039;SDS011;64736;50.462;4.850;2023-08-21T04:04:33;6.82;;;3.20;;
76039;SDS011;64736;50.462;4.850;2023-08-21T04:06:58;6.70;;;3.20;;
76039;SDS011;64736;50.462;4.850;2023-08-21T04:09:24;6.85;;;3.40;;
76039;SDS011;64736;50.462;4.850;2023-08-21T04:11:50;6.90;;;3.22;;
76039;SDS011;64736;50.462;4.850;2023-08-21T04:14:16;8.02;;;4.10;;
76039;SDS011;64736;50.462;4.850;2023-08-21T04:16:42;9.10;;;2.92;;
76039;SDS011;64736;50.462;4.850;2023-08-21T04:19:07;7.05;;;3.10;;
76039;SDS011;64736;50.462;4.850;2023-08-21T04:21:33;7.40;;;3.10;;
76039;SDS011;64736;50.462;4.850;2023-08-21T04:23:59;7.60;;;3.40;;
76039;SDS011;64736;50.462;4.850;2023-08-21T04:26:25;6.35;;;3.22;;
76039;SDS011;64736;50.462;4.850;2023-08-21T04:28:51;6.72;;;3.10;;
76039;SDS011;64736;50.462;4.850;2023-08-21T04:31:16;6.05;;;3.42;;
76039;SDS011;64736;50.462;4.850;2023-08-21T04:33:42;8.13;;;3.13;;
76039;SDS011;64736;50.462;4.850;2023-08-21T04:36:13;6.20;;;2.95;;
76039;SDS011;64736;50.462;4.850;2023-08-21T04:38:41;6.00;;;2.80;;
76039;SDS011;64736;50.462;4.850;2023-08-21T04:41:07;7.70;;;3.20;;
76039;SDS011;64736;50.462;4.850;2023-08-21T04:43:33;8.23;;;3.45;;
76039;SDS011;64736;50.462;4.850;2023-08-21T04:45:59;6.68;;;2.95;;
76039;SDS011;64736;50.462;4.850;2023-08-21T04:48:25;6.88;;;2.78;;
76039;SDS011;64736;50.462;4.850;2023-08-21T04:50:51;6.65;;;3.05;;
76039;SDS011;64736;50.462;4.850;2023-08-21T04:53:17;6.35;;;3.17;;
76039;SDS011;64736;50.462;4.850;2023-08-21T04:55:42;6.93;;;3.25;;
76039;SDS011;64736;50.462;4.850;2023-08-21T04:58:09;7.03;;;2.83;;
76039;SDS011;64736;50.462;4.850;2023-08-21T05:00:35;8.95;;;4.13;;
76039;SDS011;64736;50.462;4.850;2023-08-21T05:03:01;7.47;;;3.45;;
76039;SDS011;64736;50.462;4.850;2023-08-21T05:05:27;6.32;;;3.15;;
76039;SDS011;64736;50.462;4.850;2023-08-21T05:07:53;7.30;;;3.42;;
76039;SDS011;64736;50.462;4.850;2023-08-21T05:10:19;6.55;;;3.60;;
76039;SDS011;64736;50.462;4.850;2023-08-21T05:12:46;8.30;;;3.38;;
76039;SDS011;64736;50.462;4.850;2023-08-21T05:15:12;8.82;;;3.40;;
76039;SDS011;64736;50.462;4.850;2023-08-21T05:17:38;8.60;;;3.45;;
76039;SDS011;64736;50.462;4.850;2023-08-21T05:20:04;9.52;;;3.60;;
76039;SDS011;64736;50.462;4.850;2023-08-21T05:22:30;8.63;;;3.35;;
76039;SDS011;64736;50.462;4.850;2023-08-21T05:24:56;7.20;;;3.53;;
76039;SDS011;64736;50.462;4.850;2023-08-21T05:27:21;6.57;;;3.38;;
76039;SDS011;64736;50.462;4.850;2023-08-21T05:29:47;7.20;;;3.53;;
76039;SDS011;64736;50.462;4.850;2023-08-21T05:32:16;7.68;;;2.80;;
76039;SDS011;64736;50.462;4.850;2023-08-21T05:34:42;9.38;;;3.38;;
76039;SDS011;64736;50.462;4.850;2023-08-21T05:37:08;6.32;;;3.08;;
76039;SDS011;64736;50.462;4.850;2023-08-21T05:39:33;7.97;;;3.88;;
76039;SDS011;64736;50.462;4.850;2023-08-21T05:41:59;6.85;;;3.65;;
76039;SDS011;64736;50.462;4.850;2023-08-21T05:44:25;9.43;;;5.18;;
76039;SDS011;64736;50.462;4.850;2023-08-21T05:46:51;10.13;;;3.70;;
76039;SDS011;64736;50.462;4.850;2023-08-21T05:49:16;7.03;;;2.85;;
76039;SDS011;64736;50.462;4.850;2023-08-21T05:51:42;6.80;;;2.90;;
76039;SDS011;64736;50.462;4.850;2023-08-21T05:54:08;6.47;;;3.08;;
76039;SDS011;64736;50.462;4.850;2023-08-21T05:56:33;7.75;;;3.70;;
76039;SDS011;64736;50.462;4.850;2023-08-21T05:58:59;6.22;;;2.97;;
76039;SDS011;64736;50.462;4.850;2023-08-21T06:01:25;7.07;;;3.13;;
76039;SDS011;64736;50.462;4.850;2023-08-21T06:03:50;8.15;;;3.63;;
76039;SDS011;64736;50.462;4.850;2023-08-21T06:06:16;9.23;;;3.28;;
76039;SDS011;64736;50.462;4.850;2023-08-21T06:08:42;8.93;;;3.55;;
76039;SDS011;64736;50.462;4.850;2023-08-21T06:11:08;6.70;;;3.60;;
76039;SDS011;64736;50.462;4.850;2023-08-21T06:13:34;6.72;;;3.63;;
76039;SDS011;64736;50.462;4.850;2023-08-21T06:16:00;8.63;;;3.85;;
76039;SDS011;64736;50.462;4.850;2023-08-21T06:18:26;9.25;;;4.43;;
76039;SDS011;64736;50.462;4.850;2023-08-21T06:20:51;7.93;;;3.33;;
76039;SDS011;64736;50.462;4.850;2023-08-21T06:23:21;9.15;;;3.80;;
76039;SDS011;64736;50.462;4.850;2023-08-21T06:25:47;7.37;;;3.63;;
76039;SDS011;64736;50.462;4.850;2023-08-21T06:28:13;7.85;;;3.15;;
76039;SDS011;64736;50.462;4.850;2023-08-21T06:30:39;7.63;;;3.40;;
76039;SDS011;64736;50.462;4.850;2023-08-21T06:33:05;8.43;;;3.28;;
76039;SDS011;64736;50.462;4.850;2023-08-21T06:35:31;6.35;;;3.08;;
76039;SDS011;64736;50.462;4.850;2023-08-21T06:37:56;6.85;;;3.08;;
76039;SDS011;64736;50.462;4.850;2023-08-21T06:40:22;6.70;;;3.35;;
76039;SDS011;64736;50.462;4.850;2023-08-21T06:42:48;7.85;;;3.28;;
76039;SDS011;64736;50.462;4.850;2023-08-21T06:45:17;8.60;;;4.50;;
76039;SDS011;64736;50.462;4.850;2023-08-21T06:47:43;7.78;;;3.25;;
76039;SDS011;64736;50.462;4.850;2023-08-21T06:50:09;8.30;;;3.08;;
76039;SDS011;64736;50.462;4.850;2023-08-21T06:52:35;7.85;;;3.28;;
76039;SDS011;64736;50.462;4.850;2023-08-21T06:55:01;12.65;;;6.95;;
76039;SDS011;64736;50.462;4.850;2023-08-21T06:57:27;8.52;;;4.00;;
76039;SDS011;64736;50.462;4.850;2023-08-21T06:59:53;12.35;;;4.00;;
76039;SDS011;64736;50.462;4.850;2023-08-21T07:02:19;7.47;;;3.83;;
76039;SDS011;64736;50.462;4.850;2023-08-21T07:04:45;8.57;;;3.40;;
76039;SDS011;64736;50.462;4.850;2023-08-21T07:07:11;7.15;;;2.85;;
76039;SDS011;64736;50.462;4.850;2023-08-21T07:09:36;6.18;;;2.78;;
76039;SDS011;64736;50.462;4.850;2023-08-21T07:12:02;9.55;;;2.97;;
76039;SDS011;64736;50.462;4.850;2023-08-21T07:14:28;10.98;;;3.25;;
76039;SDS011;64736;50.462;4.850;2023-08-21T07:16:54;8.00;;;2.72;;
76039;SDS011;64736;50.462;4.850;2023-08-21T07:19:19;9.73;;;2.90;;
76039;SDS011;64736;50.462;4.850;2023-08-21T07:21:45;6.32;;;3.30;;
76039;SDS011;64736;50.462;4.850;2023-08-21T07:24:11;7.45;;;3.15;;
76039;SDS011;64736;50.462;4.850;2023-08-21T07:26:37;7.22;;;3.72;;
76039;SDS011;64736;50.462;4.850;2023-08-21T07:29:02;6.38;;;2.60;;
76039;SDS011;64736;50.462;4.850;2023-08-21T07:31:29;6.60;;;2.53;;
76039;SDS011;64736;50.462;4.850;2023-08-21T07:33:55;6.22;;;2.92;;
76039;SDS011;64736;50.462;4.850;2023-08-21T07:36:21;9.27;;;3.30;;
76039;SDS011;64736;50.462;4.850;2023-08-21T07:38:47;11.07;;;2.88;;
76039;SDS011;64736;50.462;4.850;2023-08-21T07:41:13;5.57;;;2.47;;
76039;SDS011;64736;50.462;4.850;2023-08-21T07:43:43;6.13;;;2.35;;
76039;SDS011;64736;50.462;4.850;2023-08-21T07:46:13;5.97;;;2.78;;
76039;SDS011;64736;50.462;4.850;2023-08-21T07:48:47;5.40;;;2.40;;
76039;SDS011;64736;50.462;4.850;2023-08-21T07:51:13;5.47;;;2.50;;
76039;SDS011;64736;50.462;4.850;2023-08-21T07:53:39;7.97;;;2.58;;
76039;SDS011;64736;50.462;4.850;2023-08-21T07:56:05;6.68;;;2.75;;
76039;SDS011;64736;50.462;4.850;2023-08-21T07:58:31;7.85;;;3.30;;
76039;SDS011;64736;50.462;4.850;2023-08-21T08:00:57;8.75;;;2.75;;
76039;SDS011;64736;50.462;4.850;2023-08-21T08:03:23;6.65;;;2.70;;
76039;SDS011;64736;50.462;4.850;2023-08-21T08:05:50;8.77;;;2.80;;
76039;SDS011;64736;50.462;4.850;2023-08-21T08:08:17;7.50;;;2.50;;
76039;SDS011;64736;50.462;4.850;2023-08-21T08:10:43;6.72;;;2.60;;
76039;SDS011;64736;50.462;4.850;2023-08-21T08:13:09;6.43;;;2.50;;
76039;SDS011;64736;50.462;4.850;2023-08-21T08:15:36;6.82;;;2.30;;
76039;SDS011;64736;50.462;4.850;2023-08-21T08:18:02;8.55;;;2.80;;
76039;SDS011;64736;50.462;4.850;2023-08-21T08:20:29;5.75;;;2.20;;
76039;SDS011;64736;50.462;4.850;2023-08-21T08:22:54;5.28;;;2.20;;
76039;SDS011;64736;50.462;4.850;2023-08-21T08:25:21;6.20;;;2.50;;
76039;SDS011;64736;50.462;4.850;2023-08-21T08:27:48;5.88;;;2.10;;
76039;SDS011;64736;50.462;4.850;2023-08-21T08:30:14;5.97;;;2.60;;
76039;SDS011;64736;50.462;4.850;2023-08-21T08:32:42;6.65;;;2.25;;
76039;SDS011;64736;50.462;4.850;2023-08-21T08:35:14;4.85;;;2.10;;
76039;SDS011;64736;50.462;4.850;2023-08-21T08:37:43;7.00;;;2.03;;
76039;SDS011;64736;50.462;4.850;2023-08-21T08:40:10;5.95;;;2.20;;
76039;SDS011;64736;50.462;4.850;2023-08-21T08:42:36;9.43;;;2.95;;
76039;SDS011;64736;50.462;4.850;2023-08-21T08:45:03;6.55;;;2.70;;
76039;SDS011;64736;50.462;4.850;2023-08-21T08:47:33;8.85;;;2.90;;
76039;SDS011;64736;50.462;4.850;2023-08-21T08:50:03;5.53;;;2.45;;
76039;SDS011;64736;50.462;4.850;2023-08-21T08:52:34;7.50;;;2.10;;
76039;SDS011;64736;50.462;4.850;2023-08-21T08:55:02;7.93;;;3.17;;
76039;SDS011;64736;50.462;4.850;2023-08-21T08:57:28;8.25;;;3.05;;
76039;SDS011;64736;50.462;4.850;2023-08-21T08:59:55;8.93;;;2.85;;
76039;SDS011;64736;50.462;4.850;2023-08-21T09:02:21;7.30;;;2.35;;
76039;SDS011;64736;50.462;4.850;2023-08-21T09:04:48;7.35;;;2.50;;
76039;SDS011;64736;50.462;4.850;2023-08-21T09:07:16;8.13;;;3.08;;
76039;SDS011;64736;50.462;4.850;2023-08-21T09:09:48;6.65;;;3.08;;
76039;SDS011;64736;50.462;4.850;2023-08-21T09:12:15;7.93;;;3.10;;
76039;SDS011;64736;50.462;4.850;2023-08-21T09:14:43;6.53;;;3.47;;
76039;SDS011;64736;50.462;4.850;2023-08-21T09:17:09;9.18;;;2.88;;
76039;SDS011;64736;50.462;4.850;2023-08-21T09:19:36;8.57;;;3.20;;
76039;SDS011;64736;50.462;4.850;2023-08-21T09:22:08;7.22;;;2.88;;
76039;SDS011;64736;50.462;4.850;2023-08-21T09:24:35;8.35;;;3.13;;
76039;SDS011;64736;50.462;4.850;2023-08-21T09:27:01;7.70;;;2.50;;
76039;SDS011;64736;50.462;4.850;2023-08-21T09:29:27;8.30;;;2.95;;
76039;SDS011;64736;50.462;4.850;2023-08-21T09:32:05;5.75;;;2.28;;
76039;SDS011;64736;50.462;4.850;2023-08-21T09:34:35;6.70;;;2.78;;
76039;SDS011;64736;50.462;4.850;2023-08-21T09:37:05;7.43;;;2.40;;
76039;SDS011;64736;50.462;4.850;2023-08-21T09:39:33;8.23;;;2.78;;
76039;SDS011;64736;50.462;4.850;2023-08-21T09:42:00;6.03;;;2.63;;
76039;SDS011;64736;50.462;4.850;2023-08-21T09:44:27;6.28;;;2.75;;
76039;SDS011;64736;50.462;4.850;2023-08-21T09:46:52;5.38;;;2.33;;
76039;SDS011;64736;50.462;4.850;2023-08-21T09:49:18;8.00;;;2.83;;
76039;SDS011;64736;50.462;4.850;2023-08-21T09:51:45;6.35;;;2.50;;
76039;SDS011;64736;50.462;4.850;2023-08-21T09:54:12;7.88;;;2.53;;
76039;SDS011;64736;50.462;4.850;2023-08-21T09:56:39;6.65;;;2.17;;
76039;SDS011;64736;50.462;4.850;2023-08-21T09:59:05;11.60;;;2.55;;
76039;SDS011;64736;50.462;4.850;2023-08-21T10:01:32;5.70;;;2.08;;
76039;SDS011;64736;50.462;4.850;2023-08-21T10:04:00;7.78;;;2.30;;
76039;SDS011;64736;50.462;4.850;2023-08-21T10:06:28;8.27;;;2.70;;
76039;SDS011;64736;50.462;4.850;2023-08-21T10:08:55;6.03;;;2.60;;
76039;SDS011;64736;50.462;4.850;2023-08-21T10:11:22;7.37;;;2.43;;
76039;SDS011;64736;50.462;4.850;2023-08-21T10:13:49;5.88;;;2.15;;
76039;SDS011;64736;50.462;4.850;2023-08-21T10:16:18;7.35;;;2.35;;
76039;SDS011;64736;50.462;4.850;2023-08-21T10:18:46;6.13;;;2.30;;
76039;SDS011;64736;50.462;4.850;2023-08-21T10:21:17;6.05;;;2.00;;
76039;SDS011;64736;50.462;4.850;2023-08-21T10:23:51;7.50;;;2.55;;
76039;SDS011;64736;50.462;4.850;2023-08-21T10:26:21;5.82;;;2.08;;
76039;SDS011;64736;50.462;4.850;2023-08-21T10:31:30;6.47;;;1.77;;
76039;SDS011;64736;50.462;4.850;2023-08-21T10:34:09;6.45;;;2.30;;
76039;SDS011;64736;50.462;4.850;2023-08-21T10:36:39;5.43;;;2.20;;
76039;SDS011;64736;50.462;4.850;2023-08-21T10:39:12;6.07;;;2.15;;
76039;SDS011;64736;50.462;4.850;2023-08-21T10:41:40;7.88;;;2.70;;
76039;SDS011;64736;50.462;4.850;2023-08-21T10:44:06;7.30;;;1.67;;
76039;SDS011;64736;50.462;4.850;2023-08-21T10:46:52;6.25;;;2.15;;
76039;SDS011;64736;50.462;4.850;2023-08-21T10:49:18;6.97;;;2.58;;
76039;SDS011;64736;50.462;4.850;2023-08-21T10:51:44;6.13;;;1.90;;
76039;SDS011;64736;50.462;4.850;2023-08-21T10:54:10;6.75;;;2.00;;
76039;SDS011;64736;50.462;4.850;2023-08-21T10:56:37;5.25;;;2.10;;
76039;SDS011;64736;50.462;4.850;2023-08-21T10:59:03;8.00;;;2.55;;
76039;SDS011;64736;50.462;4.850;2023-08-21T11:01:50;8.32;;;2.17;;
76039;SDS011;64736;50.462;4.850;2023-08-21T11:06:42;6.80;;;2.40;;
76039;SDS011;64736;50.462;4.850;2023-08-21T11:09:14;6.65;;;2.53;;
76039;SDS011;64736;50.462;4.850;2023-08-21T11:11:43;6.32;;;1.80;;
76039;SDS011;64736;50.462;4.850;2023-08-21T11:14:09;7.15;;;2.33;;
76039;SDS011;64736;50.462;4.850;2023-08-21T11:16:34;9.50;;;2.17;;
76039;SDS011;64736;50.462;4.850;2023-08-21T11:19:03;11.77;;;2.97;;
76039;SDS011;64736;50.462;4.850;2023-08-21T11:21:30;8.35;;;2.60;;
76039;SDS011;64736;50.462;4.850;2023-08-21T11:23:56;7.40;;;2.00;;
76039;SDS011;64736;50.462;4.850;2023-08-21T11:26:22;7.13;;;2.70;;
76039;SDS011;64736;50.462;4.850;2023-08-21T11:28:50;6.72;;;2.70;;
76039;SDS011;64736;50.462;4.850;2023-08-21T11:31:17;5.72;;;2.65;;
76039;SDS011;64736;50.462;4.850;2023-08-21T11:33:48;7.43;;;2.97;;
76039;SDS011;64736;50.462;4.850;2023-08-21T11:36:15;5.93;;;2.53;;
76039;SDS011;64736;50.462;4.850;2023-08-21T11:38:41;5.55;;;2.35;;
76039;SDS011;64736;50.462;4.850;2023-08-21T11:41:07;7.57;;;2.72;;
76039;SDS011;64736;50.462;4.850;2023-08-21T11:43:39;11.93;;;3.45;;
76039;SDS011;64736;50.462;4.850;2023-08-21T11:46:08;6.85;;;2.60;;
76039;SDS011;64736;50.462;4.850;2023-08-21T11:48:39;7.28;;;2.33;;
76039;SDS011;64736;50.462;4.850;2023-08-21T11:51:06;5.88;;;2.80;;
76039;SDS011;64736;50.462;4.850;2023-08-21T11:53:36;7.05;;;2.50;;
76039;SDS011;64736;50.462;4.850;2023-08-21T11:56:02;7.18;;;2.53;;
76039;SDS011;64736;50.462;4.850;2023-08-21T11:58:37;8.38;;;3.28;;
76039;SDS011;64736;50.462;4.850;2023-08-21T12:01:04;4.97;;;1.95;;
76039;SDS011;64736;50.462;4.850;2023-08-21T12:03:30;7.88;;;2.42;;
76039;SDS011;64736;50.462;4.850;2023-08-21T12:06:08;6.80;;;2.38;;
76039;SDS011;64736;50.462;4.850;2023-08-21T12:08:36;7.05;;;2.40;;
76039;SDS011;64736;50.462;4.850;2023-08-21T12:11:02;6.22;;;2.65;;
76039;SDS011;64736;50.462;4.850;2023-08-21T12:13:28;11.70;;;2.60;;
76039;SDS011;64736;50.462;4.850;2023-08-21T12:15:54;7.38;;;2.20;;
76039;SDS011;64736;50.462;4.850;2023-08-21T12:18:20;5.18;;;2.25;;
76039;SDS011;64736;50.462;4.850;2023-08-21T12:20:46;5.90;;;1.95;;
76039;SDS011;64736;50.462;4.850;2023-08-21T12:23:11;6.80;;;2.03;;
76039;SDS011;64736;50.462;4.850;2023-08-21T12:25:37;6.40;;;2.25;;
76039;SDS011;64736;50.462;4.850;2023-08-21T12:28:03;6.60;;;2.00;;
76039;SDS011;64736;50.462;4.850;2023-08-21T12:30:30;5.53;;;1.90;;
76039;SDS011;64736;50.462;4.850;2023-08-21T12:32:55;4.70;;;2.22;;
76039;SDS011;64736;50.462;4.850;2023-08-21T12:35:21;4.95;;;1.70;;
76039;SDS011;64736;50.462;4.850;2023-08-21T12:37:47;4.50;;;2.30;;
76039;SDS011;64736;50.462;4.850;2023-08-21T12:40:12;4.90;;;1.90;;
76039;SDS011;64736;50.462;4.850;2023-08-21T12:42:38;6.10;;;1.80;;
76039;SDS011;64736;50.462;4.850;2023-08-21T12:45:04;5.85;;;2.33;;
76039;SDS011;64736;50.462;4.850;2023-08-21T12:47:30;6.15;;;1.98;;
76039;SDS011;64736;50.462;4.850;2023-08-21T12:49:56;7.22;;;2.10;;
76039;SDS011;64736;50.462;4.850;2023-08-21T12:52:22;5.45;;;2.30;;
76039;SDS011;64736;50.462;4.850;2023-08-21T12:54:48;6.88;;;1.92;;
76039;SDS011;64736;50.462;4.850;2023-08-21T12:57:13;5.22;;;2.10;;
76039;SDS011;64736;50.462;4.850;2023-08-21T12:59:42;6.75;;;1.95;;
76039;SDS011;64736;50.462;4.850;2023-08-21T13:02:08;6.63;;;2.00;;
76039;SDS011;64736;50.462;4.850;2023-08-21T13:04:34;6.03;;;2.17;;
76039;SDS011;64736;50.462;4.850;2023-08-21T13:06:59;5.13;;;1.80;;
76039;SDS011;64736;50.462;4.850;2023-08-21T13:09:26;4.00;;;1.60;;
76039;SDS011;64736;50.462;4.850;2023-08-21T13:11:53;7.65;;;2.03;;
76039;SDS011;64736;50.462;4.850;2023-08-21T13:14:19;6.93;;;2.15;;
76039;SDS011;64736;50.462;4.850;2023-08-21T13:16:45;3.88;;;1.65;;
76039;SDS011;64736;50.462;4.850;2023-08-21T13:19:11;6.35;;;2.10;;
76039;SDS011;64736;50.462;4.850;2023-08-21T13:21:37;4.28;;;1.80;;
76039;SDS011;64736;50.462;4.850;2023-08-21T13:24:02;5.82;;;2.08;;
76039;SDS011;64736;50.462;4.850;2023-08-21T13:26:29;5.13;;;2.00;;
76039;SDS011;64736;50.462;4.850;2023-08-21T13:28:56;4.65;;;1.80;;
76039;SDS011;64736;50.462;4.850;2023-08-21T13:31:22;6.20;;;1.60;;
76039;SDS011;64736;50.462;4.850;2023-08-21T13:33:48;5.80;;;2.13;;
76039;SDS011;64736;50.462;4.850;2023-08-21T13:36:15;4.50;;;1.80;;
76039;SDS011;64736;50.462;4.850;2023-08-21T13:38:42;5.47;;;2.53;;
76039;SDS011;64736;50.462;4.850;2023-08-21T13:41:08;5.70;;;1.80;;
76039;SDS011;64736;50.462;4.850;2023-08-21T13:43:35;4.90;;;1.70;;
76039;SDS011;64736;50.462;4.850;2023-08-21T13:46:01;6.13;;;2.42;;
76039;SDS011;64736;50.462;4.850;2023-08-21T13:48:29;4.55;;;1.75;;
76039;SDS011;64736;50.462;4.850;2023-08-21T13:50:55;4.82;;;1.65;;
76039;SDS011;64736;50.462;4.850;2023-08-21T13:53:21;4.95;;;1.80;;
76039;SDS011;64736;50.462;4.850;2023-08-21T13:55:49;5.63;;;1.92;;
76039;SDS011;64736;50.462;4.850;2023-08-21T13:58:15;6.30;;;1.83;;
76039;SDS011;64736;50.462;4.850;2023-08-21T14:00:41;5.80;;;1.67;;
76039;SDS011;64736;50.462;4.850;2023-08-21T14:03:06;4.80;;;1.90;;
76039;SDS011;64736;50.462;4.850;2023-08-21T14:05:32;8.23;;;1.83;;
76039;SDS011;64736;50.462;4.850;2023-08-21T14:07:59;4.07;;;1.40;;
76039;SDS011;64736;50.462;4.850;2023-08-21T14:10:25;5.80;;;1.85;;
76039;SDS011;64736;50.462;4.850;2023-08-21T14:12:51;4.90;;;1.85;;
76039;SDS011;64736;50.462;4.850;2023-08-21T14:15:17;5.70;;;1.80;;
76039;SDS011;64736;50.462;4.850;2023-08-21T14:17:43;4.72;;;1.60;;
76039;SDS011;64736;50.462;4.850;2023-08-21T14:20:10;4.68;;;1.77;;
76039;SDS011;64736;50.462;4.850;2023-08-21T14:22:36;5.35;;;1.90;;
76039;SDS011;64736;50.462;4.850;2023-08-21T14:25:03;3.67;;;1.88;;
76039;SDS011;64736;50.462;4.850;2023-08-21T14:27:32;4.07;;;1.50;;
76039;SDS011;64736;50.462;4.850;2023-08-21T14:29:58;4.70;;;2.03;;
76039;SDS011;64736;50.462;4.850;2023-08-21T14:32:24;4.75;;;1.85;;
76039;SDS011;64736;50.462;4.850;2023-08-21T14:34:50;5.38;;;2.38;;
76039;SDS011;64736;50.462;4.850;2023-08-21T14:37:18;6.15;;;2.00;;
76039;SDS011;64736;50.462;4.850;2023-08-21T14:39:46;6.00;;;2.03;;
76039;SDS011;64736;50.462;4.850;2023-08-21T14:42:13;7.05;;;1.90;;
76039;SDS011;64736;50.462;4.850;2023-08-21T14:44:39;8.88;;;1.83;;
76039;SDS011;64736;50.462;4.850;2023-08-21T14:47:05;6.80;;;2.15;;
76039;SDS011;64736;50.462;4.850;2023-08-21T14:49:31;6.45;;;2.10;;
76039;SDS011;64736;50.462;4.850;2023-08-21T14:51:57;5.35;;;1.75;;
76039;SDS011;64736;50.462;4.850;2023-08-21T14:54:24;6.70;;;2.25;;
76039;SDS011;64736;50.462;4.850;2023-08-21T14:56:50;5.15;;;2.08;;